MV Hermann Scan — V2CM8 — position and weather

sailwx.info

Track history (hours):
 
Tides and Currents Weather Stations Pressure Air Temp Water Temp Dewpoint Dewpoint Depression Visibility Wind Speed Wind Dir Waves Ship Positions

MV Hermann Scan

Last reported at 2018-Feb-16 22:09 UTC. Time now 2018-Feb-21 07:50 UTC.
Position N 26°36' W 014°26'.

Length 118 m; draft 5.7 m.

Type: Cargo ship. MMSI: 305046000.

Date/timePositionNaut miles runAvg speedWind from/ knotsBaromVisibWave heightAir tempDewpointWater temp
2018-Feb-16 22:09N 26°36' W 014°26'213.3
2018-Feb-16 22:00N 26°38' W 014°24'2113.1
2018-Feb-16 20:22N 26°56' W 014°11'513.4
2018-Feb-16 20:00N 27°00' W 014°09'813.7
2018-Feb-16 19:25N 27°07' W 014°04'1713.3
2018-Feb-16 18:08N 27°21' W 013°53'213.6
2018-Feb-16 17:58N 27°23' W 013°52'713.6
2018-Feb-16 17:27N 27°29' W 013°48'613.4
2018-Feb-16 17:00N 27°34' W 013°44'24813.2
2018-Feb-15 22:13N 31°04' W 011°12'313.6
2018-Feb-15 22:00N 31°06' W 011°10'1113.6
2018-Feb-15 21:11N 31°15' W 011°03'413.7
2018-Feb-15 20:52N 31°19' W 010°60'613.9
2018-Feb-15 20:27N 31°24' W 010°56'613.9
2018-Feb-15 20:01N 31°29' W 010°52'713.8
2018-Feb-15 19:30N 31°35' W 010°48'714.0
2018-Feb-15 19:00N 31°41' W 010°44'5113.5
2018-Feb-15 15:11N 32°19' W 010°02'313.5
2018-Feb-15 14:58N 32°21' W 010°00'1013.4
2018-Feb-15 14:14N 32°29' W 009°53'30213.0
2018-Feb-14 15:00N 35°59' W 005°30'510.2
2018-Feb-14 14:30N 36°00' W 005°24'5 9.8
2018-Feb-14 14:00N 36°01' W 005°18'510.3
2018-Feb-14 13:29N 36°02' W 005°12'  
2018-Feb-09 20:31N 35°60' W 005°15'815.1
2018-Feb-09 20:01N 35°58' W 005°24'13312.6
2018-Feb-09 09:31N 34°37' W 007°32'612.4
2018-Feb-09 09:00N 34°32' W 007°38'51110.1
2018-Feb-07 06:07N 28°38' W 014°51'110.9
2018-Feb-07 06:00N 28°37' W 014°52'510.5
2018-Feb-07 05:30N 28°34' W 014°56'1010.4
2018-Feb-07 04:30N 28°26' W 015°04'2110.4
2018-Feb-07 02:30N 28°11' W 015°21'3 6.2
2018-Feb-07 01:59N 28°09' W 015°24'0 0.0
2018-Feb-07 01:29N 28°09' W 015°24'0 0.0
2018-Feb-07 00:59N 28°09' W 015°24'0 0.0
2018-Feb-07 00:29N 28°09' W 015°24'0 0.0
2018-Feb-06 22:58N 28°09' W 015°24'  
Track history (hours):
 
Tides and Currents Weather Stations Pressure Air Temp Water Temp Dewpoint Dewpoint Depression Visibility Wind Speed Wind Dir Waves Ship Positions

MV Hermann Scan

Last reported at 2018-Feb-16 22:09 UTC. Time now 2018-Feb-21 07:50 UTC.
Position N 26°36' W 014°26'.

Length 118 m; draft 5.7 m.

Type: Cargo ship. MMSI: 305046000.

Date/timePositionNaut miles runAvg speedWind from/ knotsBaromVisibWave heightAir tempDewpointWater temp
2018-Feb-16 22:09N 26°36' W 014°26'213.3
2018-Feb-16 22:00N 26°38' W 014°24'2113.1
2018-Feb-16 20:22N 26°56' W 014°11'513.4
2018-Feb-16 20:00N 27°00' W 014°09'813.7
2018-Feb-16 19:25N 27°07' W 014°04'1713.3
2018-Feb-16 18:08N 27°21' W 013°53'213.6
2018-Feb-16 17:58N 27°23' W 013°52'713.6
2018-Feb-16 17:27N 27°29' W 013°48'613.4
2018-Feb-16 17:00N 27°34' W 013°44'24813.2
2018-Feb-15 22:13N 31°04' W 011°12'313.6
2018-Feb-15 22:00N 31°06' W 011°10'1113.6
2018-Feb-15 21:11N 31°15' W 011°03'413.7
2018-Feb-15 20:52N 31°19' W 010°60'613.9
2018-Feb-15 20:27N 31°24' W 010°56'613.9
2018-Feb-15 20:01N 31°29' W 010°52'713.8
2018-Feb-15 19:30N 31°35' W 010°48'714.0
2018-Feb-15 19:00N 31°41' W 010°44'5113.5
2018-Feb-15 15:11N 32°19' W 010°02'313.5
2018-Feb-15 14:58N 32°21' W 010°00'1013.4
2018-Feb-15 14:14N 32°29' W 009°53'30213.0
2018-Feb-14 15:00N 35°59' W 005°30'510.2
2018-Feb-14 14:30N 36°00' W 005°24'5 9.8
2018-Feb-14 14:00N 36°01' W 005°18'510.3
2018-Feb-14 13:29N 36°02' W 005°12'  
2018-Feb-09 20:31N 35°60' W 005°15'815.1
2018-Feb-09 20:01N 35°58' W 005°24'13312.6
2018-Feb-09 09:31N 34°37' W 007°32'612.4
2018-Feb-09 09:00N 34°32' W 007°38'51110.1
2018-Feb-07 06:07N 28°38' W 014°51'110.9
2018-Feb-07 06:00N 28°37' W 014°52'510.5
2018-Feb-07 05:30N 28°34' W 014°56'1010.4
2018-Feb-07 04:30N 28°26' W 015°04'2110.4
2018-Feb-07 02:30N 28°11' W 015°21'3 6.2
2018-Feb-07 01:59N 28°09' W 015°24'0 0.0
2018-Feb-07 01:29N 28°09' W 015°24'0 0.0
2018-Feb-07 00:59N 28°09' W 015°24'0 0.0
2018-Feb-07 00:29N 28°09' W 015°24'0 0.0
2018-Feb-06 22:58N 28°09' W 015°24'  

Dump ship's entire track history